»·PEaware :: N1SC KSMO-KSAN

N1SC :: KSMO-KSAN

FLIGHT INFORMATION

Flight Status: Arrived
Operator: Privately registered:
United States
More flights under this callsign
Pilot: Chris C. (10181)
Aircraft: BEECH AIRCRAFT DUCHESS
(BE76)
More flights by this aircraft type
Origin: KSMO Santa Monica Mun
United States
Destination: KSAN San Diego Intl-Lindbergh
United States
More flights between these airports :: More routes between these airports
Route: +SMO SMO125R V64 V363 DANAH V23 MZB
File this flight plan on PilotEdge
Remarks: Happy Sunday
Altitude:
(Current/Filed)
5,000ft
Speed:
(Current/Filed)
150kts
Departed: 12-Jan-20 04:50 PM
Arrived: 12-Jan-20 05:40 PM
Distance/Time
Traveled:
100nm/0:50
Distance/Time
To Go:
Arrived

Flight Plot

Page will automatically refresh every two minutes.


Map Options




Map Legend


Flown Route
Filed Route
Departure Airport
Arrival Airport
Navaid (VOR, NDB)
Fix

Horizontal Profiles

Position Reports

Time Latitude Longitude Heading Altitude Ground
Speed
12-Jan-20 16:36 34.019505 -118.448507 45 153ft 0kts
12-Jan-20 16:37 34.019505 -118.448507 45 153ft 0kts
12-Jan-20 16:38 34.019505 -118.448507 45 153ft 0kts
12-Jan-20 16:39 34.019505 -118.448507 45 153ft 0kts
12-Jan-20 16:40 34.019505 -118.448507 45 153ft 0kts
12-Jan-20 16:41 34.019505 -118.448507 45 153ft 0kts
12-Jan-20 16:42 34.019505 -118.448507 45 153ft 0kts
12-Jan-20 16:43 34.019505 -118.448507 45 153ft 0kts
12-Jan-20 16:44 34.019505 -118.448507 45 153ft 0kts
12-Jan-20 16:45 34.019505 -118.448507 45 153ft 0kts
12-Jan-20 16:46 34.019505 -118.448507 45 153ft 0kts
12-Jan-20 16:47 34.019505 -118.448507 45 153ft 0kts
12-Jan-20 16:48 34.019563 -118.447736 137 154ft 0kts
12-Jan-20 16:49 34.015219 -118.452026 225 217ft 91kts
12-Jan-20 16:50 33.995193 -118.474420 226 1968ft 102kts
12-Jan-20 16:51 33.990916 -118.506749 263 3400ft 101kts
12-Jan-20 16:52 34.010201 -118.517694 48 3922ft 151kts
12-Jan-20 16:53 34.019049 -118.465527 91 4038ft 163kts
12-Jan-20 16:54 33.995133 -118.427511 162 4404ft 147kts
12-Jan-20 16:55 33.955971 -118.410855 172 4812ft 151kts
12-Jan-20 16:56 33.914267 -118.397486 171 5000ft 161kts
12-Jan-20 16:57 33.870316 -118.382912 171 4996ft 164kts
12-Jan-20 16:58 33.829299 -118.358091 142 4994ft 174kts
12-Jan-20 16:59 33.793380 -118.318411 142 4991ft 175kts
12-Jan-20 17:00 33.757475 -118.278705 142 4989ft 174kts
12-Jan-20 17:01 33.721772 -118.238930 142 4990ft 173kts
12-Jan-20 17:02 33.686551 -118.199384 142 4990ft 172kts
12-Jan-20 17:03 33.651551 -118.159813 142 4990ft 171kts
12-Jan-20 17:04 33.617033 -118.120552 142 4990ft 170kts
12-Jan-20 17:05 33.582819 -118.081552 142 4990ft 169kts
12-Jan-20 17:06 33.547472 -118.042971 142 4990ft 174kts
12-Jan-20 17:07 33.510151 -118.005257 142 4991ft 177kts
12-Jan-20 17:08 33.471354 -117.968523 142 4991ft 177kts
12-Jan-20 17:09 33.431978 -117.932845 142 4991ft 177kts
12-Jan-20 17:10 33.399477 -117.890905 112 4996ft 173kts
12-Jan-20 17:11 33.378583 -117.838736 112 4998ft 172kts
12-Jan-20 17:12 33.357875 -117.787221 112 5002ft 171kts
12-Jan-20 17:13 33.337259 -117.735866 112 5005ft 170kts
12-Jan-20 17:14 33.316777 -117.684724 112 5008ft 169kts
12-Jan-20 17:15 33.296447 -117.633847 112 5009ft 169kts
12-Jan-20 17:16 33.276185 -117.583049 112 5009ft 169kts
12-Jan-20 17:17 33.256066 -117.531717 112 5006ft 173kts
12-Jan-20 17:18 33.234438 -117.479731 137 4997ft 176kts
12-Jan-20 17:19 33.194831 -117.445247 151 5000ft 176kts
12-Jan-20 17:20 33.151812 -117.416839 151 4997ft 177kts
12-Jan-20 17:21 33.107249 -117.391977 156 4995ft 176kts
12-Jan-20 17:22 33.062141 -117.369112 156 4994ft 175kts
12-Jan-20 17:23 33.017209 -117.347583 159 5108ft 167kts
12-Jan-20 17:24 32.975473 -117.327845 159 5634ft 159kts
12-Jan-20 17:25 32.934035 -117.307730 159 5988ft 164kts
12-Jan-20 17:26 32.890615 -117.285879 159 5984ft 171kts
12-Jan-20 17:27 32.846866 -117.263134 159 5986ft 171kts
12-Jan-20 17:28 32.812224 -117.228937 103 5989ft 174kts
12-Jan-20 17:29 32.800510 -117.172287 103 5822ft 184kts
12-Jan-20 17:30 32.787916 -117.110971 103 4982ft 193kts
12-Jan-20 17:31 32.775126 -117.049092 103 4183ft 192kts
12-Jan-20 17:32 32.749111 -117.006022 195 3633ft 149kts
12-Jan-20 17:33 32.713989 -117.017673 200 3072ft 123kts
12-Jan-20 17:34 32.693348 -117.038577 286 2748ft 104kts
12-Jan-20 17:35 32.703362 -117.071045 293 2256ft 96kts
12-Jan-20 17:36 32.712951 -117.106290 288 1800ft 135kts
12-Jan-20 17:37 32.723580 -117.149202 288 892ft 113kts
12-Jan-20 17:38 32.730325 -117.176516 288 137ft 68kts
12-Jan-20 17:39 32.733836 -117.188130 13 17ft 10kts

Navigation Log

Ident Type
Flight plan parsing failed, navigation log unavailable